Weather observations for the past three days for
Roxboro, Person County Airport
Imperial (Metric)
Date Time (edt) Wind (mph) Vis. (mi.) Weather Sky Cond. Temperature (ºF) Relative Humidity Wind Chill (°F) Heat Index (°F) Pressure Precipitation (in)
Air Dwpt 6 hour altimeter (in) sea level (mb) 1 hr 3 hr 6 hr
Max. Min.
01 16:50 S 5 10.00 Fair CLR 93.2 71.6 50% 101 30.05 0.0
01 16:30 S 5 10.00 Partly Cloudy SCT075 95 69.8 44% 101 30.05 0.0
01 16:10 Calm 10.00 Partly Cloudy SCT080 SCT085 95 64.4 36% 97 30.05 0.0
01 15:50 SW 3 10.00 Partly Cloudy SCT080 95 64.4 36% 97 30.05 0.0
01 15:30 W 5 10.00 Partly Cloudy SCT080 95 66.2 39% 98 30.06 0.0
01 15:10 Calm 10.00 Fair CLR 93.2 64.4 39% 95 30.07 0.0
01 14:50 N 6 10.00 Partly Cloudy SCT075 93.2 66.2 41% 96 30.07 0.0
01 14:30 Calm 10.00 Partly Cloudy SCT075 93.2 64.4 39% 95 30.07 0.0
01 14:10 Calm 10.00 Partly Cloudy SCT065 93.2 64.4 39% 95 30.08 0.0
01 13:50 SW 3 10.00 Partly Cloudy SCT065 95 68 41% 100 30.08 0.0
01 13:30 SW 3 10.00 Partly Cloudy SCT065 93.2 64.4 39% 95 30.08 0.0
01 13:10 N 3 10.00 Fair CLR 91.4 66.2 44% 94 30.09 0.0
01 12:50 Calm 10.00 Fair CLR 91.4 68 46% 96 30.09 0.0
01 12:30 NW 3 10.00 Fair CLR 89.6 68 49% 93 30.1 0.0
01 12:10 W 5 10.00 Fair CLR 89.6 69.8 52% 95 30.11 0.0
01 11:50 N 5 10.00 Fair CLR 89.6 69.8 52% 95 30.12 0.0
01 11:30 W 5 10.00 Fair CLR 87.8 71.6 59% 94 30.13 0.0
01 11:10 NW 6 10.00 Fair CLR 86 71.6 62% 92 30.13 0.0
01 10:50 Calm 10.00 Fair CLR 86 71.6 62% 92 30.14 0.0
01 10:30 N 6 10.00 Fair CLR 82.4 71.6 70% 87 30.14 0.0
01 10:10 N 3 10.00 Fair CLR 82.4 71.6 70% 87 30.14 0.0
01 09:50 N 6 10.00 Fair CLR 80.6 71.6 74% 85 30.14 0.0
01 09:30 W 5 10.00 Fair CLR 80.6 71.6 74% 85 30.14 0.0
01 09:10 NW 6 10.00 Fair CLR 78.8 71.6 79% 82 30.14 0.0
01 08:50 NW 3 10.00 Fair CLR 77 71.6 83% 78 30.14 0.0
01 08:30 W 3 10.00 Fair CLR 75.2 71.6 89% 75 30.13 0.0
01 08:10 NW 3 10.00 Fair CLR 73.4 71.6 94% 30.13 0.0
01 07:50 NW 3 10.00 Fair CLR 73.4 71.6 94% 30.12 0.0
01 07:30 Calm 10.00 Fair CLR 71.6 69.8 94% 30.12 0.0
01 07:10 Calm 10.00 Fair CLR 71.6 69.8 94% 30.12 0.0
01 06:50 Calm 10.00 Fair CLR 71.6 69.8 94% 30.1 0.0
01 06:30 W 3 10.00 Fair CLR 71.6 69.8 94% 30.1 0.0
01 06:10 Calm 10.00 Fair CLR 71.6 69.8 94% 30.1 0.0
01 05:50 Calm 1.50 Fog/Mist VV007 69.8 69.8 100% 30.1 0.0
01 05:30 Calm 10.00 Fair CLR 69.8 69.8 100% 30.1 0.0
01 05:10 Calm 5.00 Fog/Mist CLR 69.8 69.8 100% 30.1 0.0
01 04:50 Calm 10.00 Fair CLR 71.6 69.8 94% 30.1 0.0
01 04:30 Calm 7.00 Fair CLR 71.6 69.8 94% 30.1 0.0
01 04:10 S 3 10.00 Fair CLR 71.6 69.8 94% 30.1 0.0
01 03:50 Calm 7.00 Fair CLR 69.8 69.8 100% 30.1 0.0
01 03:30 Calm 4.00 Fog/Mist CLR 69.8 69.8 100% 30.12 0.0
01 03:10 Calm 3.00 Fog/Mist CLR 71.6 71.6 100% 30.12 0.0
01 02:50 Calm 10.00 Fair CLR 69.8 69.8 100% 30.12 0.0
01 02:30 Calm 10.00 Fair CLR 71.6 71.6 100% 30.12 0.0
01 02:10 Calm 10.00 Fair CLR 71.6 71.6 100% 30.12 0.0
01 01:50 Calm 10.00 Fair CLR 71.6 71.6 100% 30.12 0.0
01 01:30 Calm 10.00 Fair CLR 73.4 71.6 94% 30.13 0.0
01 01:10 Calm 10.00 Partly Cloudy SCT060 73.4 71.6 94% 30.13 0.0
01 00:50 Calm 10.00 Overcast BKN060 OVC080 73.4 71.6 94% 30.13 0.0
01 00:30 Calm 10.00 Overcast SCT070 OVC080 75.2 71.6 89% 75 30.13 0.0
01 00:10 Calm 10.00 Overcast BKN060 OVC080 75.2 71.6 89% 75 30.13 0.0
31 23:50 Calm 7.00 Overcast OVC060 77 73.4 89% 78 30.12 0.0
31 23:30 Calm 10.00 Overcast BKN060 OVC090 75.2 71.6 89% 75 30.12 0.0
31 23:10 Calm 10.00 Overcast SCT070 OVC090 77 73.4 89% 78 30.12 0.0
31 22:50 Calm 10.00 Overcast OVC070 77 73.4 89% 78 30.12 0.0
31 22:30 Calm 10.00 Overcast OVC070 77 73.4 89% 78 30.12 0.0
31 22:10 Calm 10.00 Overcast BKN070 OVC080 75.2 71.6 89% 75 30.12 0.0
31 21:50 Calm 10.00 Overcast OVC070 77 71.6 83% 78 30.12 0.0
31 21:30 Calm 10.00 Mostly Cloudy BKN070 73.4 71.6 94% 30.12 0.0
31 21:10 Calm 10.00 Mostly Cloudy BKN070 75.2 71.6 89% 75 30.1 0.0
31 20:50 Calm 10.00 Mostly Cloudy BKN070 77 71.6 83% 78 30.1 0.0
31 20:30 Calm 10.00 Partly Cloudy SCT070 77 71.6 83% 78 30.09 0.0
31 20:10 Calm 10.00 Fair CLR 78.8 71.6 79% 82 30.09 0.0
31 19:30 Calm 10.00 Fair CLR 82.4 71.6 70% 87 30.09 0.0
31 19:10 Calm 10.00 Fair CLR 84.2 71.6 66% 90 30.09 0.0
31 18:50 S 3 10.00 Fair CLR 87.8 71.6 59% 94 30.09 0.0
31 18:30 S 3 10.00 Fair CLR 87.8 69.8 55% 93 30.09 0.0
31 18:10 S 5 10.00 Fair CLR 87.8 69.8 55% 93 30.09 0.0
31 17:50 S 5 10.00 Fair CLR 87.8 69.8 55% 93 30.09 0.0
31 17:30 S 5 10.00 Fair CLR 86 69.8 59% 91 30.1 0.0
31 17:10 SE 5 10.00 Fair CLR 84.2 69.8 62% 88 30.1 0.0
31 16:50 SE 3 10.00 Fair CLR 86 71.6 62% 92 30.1 0.0
31 16:30 SE 7 10.00 Partly Cloudy SCT036 SCT060 SCT080 86 69.8 59% 91 30.1 0.0
31 16:10 S 5 10.00 Mostly Cloudy SCT055 BKN080 BKN100 87.8 69.8 55% 93 30.11 0.0
31 15:50 SW 5 10.00 Mostly Cloudy BKN110 87.8 69.8 55% 93 30.11 0.0
31 15:30 SW 6 10.00 Mostly Cloudy SCT050 SCT075 BKN110 91.4 69.8 49% 97 30.11 0.0
31 15:10 S 8 10.00 Mostly Cloudy SCT050 BKN120 91.4 69.8 49% 97 30.12 0.0
31 14:50 SW 5 10.00 Overcast SCT050 OVC120 89.6 69.8 52% 95 30.12 0.0
31 14:30 Calm 10.00 Mostly Cloudy BKN120 91.4 69.8 49% 97 30.13 0.0
31 14:10 S 5 10.00 Fair CLR 91.4 69.8 49% 97 30.13 0.0
31 13:50 Calm 10.00 Fair CLR 89.6 68 49% 93 30.14 0.0
31 13:30 SW 5 10.00 Fair CLR 89.6 68 49% 93 30.14 0.0
31 13:10 SE 6 10.00 Fair CLR 89.6 69.8 52% 95 30.15 0.0
31 12:50 Calm 10.00 Fair CLR 87.8 69.8 55% 93 30.15 0.0
31 12:30 E 3 10.00 Fair CLR 87.8 69.8 55% 93 30.15 0.0
31 12:10 S 3 10.00 Fair CLR 87.8 71.6 59% 94 30.16 0.0
31 11:50 N 3 10.00 Fair CLR 86 71.6 62% 92 30.16 0.0
31 11:30 W 5 10.00 Fair CLR 86 71.6 62% 92 30.17 0.0
31 11:10 W 5 10.00 Fair CLR 84.2 71.6 66% 90 30.17 0.0
31 10:50 Calm 10.00 Fair CLR 82.4 71.6 70% 87 30.17 0.0
31 10:30 W 5 10.00 Fair CLR 80.6 71.6 74% 85 30.17 0.0
31 10:10 N 5 10.00 Fair CLR 80.6 71.6 74% 85 30.16 0.0
31 09:50 W 6 10.00 Fair CLR 78.8 71.6 79% 82 30.16 0.0
31 09:30 W 5 10.00 Fair CLR 78.8 71.6 79% 82 30.17 0.0
31 09:10 W 5 10.00 Fair CLR 77 71.6 83% 78 30.17 0.0
31 08:50 Calm 10.00 Fair CLR 73.4 71.6 94% 30.17 0.0
31 08:30 Calm 10.00 Fair CLR 71.6 69.8 94% 30.17 0.0
31 08:10 Calm 10.00 Fair CLR 69.8 68 94% 30.17 0.0
31 07:50 Calm 10.00 Fair CLR 66.2 66.2 100% 30.17 0.0
31 07:30 Calm 5.00 Fog/Mist CLR 64.4 64.4 100% 30.17 0.0
31 07:10 Calm 5.00 Fog/Mist CLR 64.4 64.4 100% 30.16 0.0
31 06:50 Calm 2.00 Fog/Mist CLR 64.4 64.4 100% 30.16 0.0
31 06:30 Calm 2.50 Fog/Mist SCT002 64.4 64.4 100% 30.16 0.0
31 06:10 Calm 0.50 Fog BKN002 64.4 64.4 100% 30.15 0.0
31 05:50 Calm 4.00 Fog/Mist CLR 64.4 64.4 100% 30.15 0.0
31 05:30 Calm 1.25 Fog/Mist VV007 64.4 64.4 100% 30.15 0.0
31 05:10 Calm 10.00 Fair CLR 64.4 64.4 100% 30.15 0.0
31 04:50 Calm 7.00 Partly Cloudy SCT002 66.2 66.2 100% 30.15 0.0
31 04:30 Calm 0.50 Fog SCT002 66.2 66.2 100% 30.15 0.0
31 04:10 Calm 4.00 Fog/Mist CLR 64.4 64.4 100% 30.15 0.0
31 03:50 Calm 10.00 Fair CLR 66.2 66.2 100% 30.15 0.0
31 03:30 Calm 1.25 Fog/Mist SCT002 66.2 66.2 100% 30.16 0.0
31 03:10 Calm 3.00 Fog/Mist SCT002 64.4 64.4 100% 30.16 0.0
31 02:50 Calm 0.50 Fog VV005 66.2 66.2 100% 30.15 0.0
31 02:30 Calm 5.00 Fog/Mist CLR 64.4 64.4 100% 30.16 0.0
31 02:10 Calm 5.00 Fog/Mist SCT002 64.4 64.4 100% 30.16 0.0
31 01:50 Calm 1.00 Fog/Mist BKN002 64.4 64.4 100% 30.16 0.0
31 01:30 Calm 1.25 Fog/Mist SCT002 64.4 64.4 100% 30.17 0.0
31 01:10 Calm 3.00 Fog/Mist CLR 66.2 66.2 100% 30.17 0.0
31 00:50 Calm 1.00 Fog/Mist VV007 68 68 100% 30.17 0.0
31 00:30 Calm 10.00 Partly Cloudy SCT002 68 68 100% 30.17 0.0
31 00:10 Calm 0.50 Fog BKN002 66.2 66.2 100% 30.17 0.0
30 23:50 Calm 1.50 Fog/Mist VV007 68 68 100% 30.17 0.0
30 23:30 Calm 1.00 Fog/Mist VV007 68 68 100% 30.17 0.0
30 23:10 Calm 5.00 Fog/Mist CLR 68 68 100% 30.17 0.0
30 22:50 Calm 10.00 Fair CLR 69.8 68 94% 30.17 0.0
30 22:30 Calm 1.25 Fog/Mist VV007 68 68 100% 30.17 0.0
30 22:10 Calm 10.00 Fair CLR 69.8 69.8 100% 30.17 0.0
30 21:50 Calm 10.00 Fair CLR 69.8 69.8 100% 30.17 0.0
30 21:30 Calm 10.00 Fair CLR 69.8 69.8 100% 30.17 0.0
30 21:10 Calm 10.00 Fair CLR 71.6 69.8 94% 30.17 0.0
30 20:50 Calm 10.00 Fair CLR 71.6 69.8 94% 30.16 0.0
30 20:30 Calm 10.00 Fair CLR 71.6 69.8 94% 30.16 0.0
30 20:10 Calm 10.00 Fair CLR 73.4 69.8 89% 30.16 0.0
30 19:50 Calm 10.00 Fair CLR 77 69.8 79% 79 30.16 0.0
30 19:30 S 3 10.00 Fair CLR 78.8 69.8 74% 81 30.16 0.0
30 19:10 S 3 10.00 Fair CLR 80.6 69.8 70% 84 30.16 0.0
30 18:50 S 6 10.00 Fair CLR 82.4 69.8 66% 86 30.16 0.0
30 18:30 S 5 10.00 Fair CLR 82.4 69.8 66% 86 30.16 0.0
30 18:10 S 6 10.00 Fair CLR 84.2 69.8 62% 88 30.15 0.0
30 17:50 S 5 10.00 Fair CLR 86 69.8 59% 91 30.15 0.0
30 17:30 S 5 10.00 Fair CLR 86 69.8 59% 91 30.15 0.0
30 17:10 S 6 10.00 Fair CLR 86 69.8 59% 91 30.15 0.0
30 16:50 S 5 10.00 Fair CLR 86 69.8 59% 91 30.16 0.0
30 16:30 S 3 10.00 Fair CLR 86 69.8 59% 91 30.16 0.0
30 16:10 S 7 10.00 Partly Cloudy SCT039 86 69.8 59% 91 30.17 0.0
30 15:50 Calm 10.00 Fair CLR 86 69.8 59% 91 30.17 0.0
30 15:30 S 6 10.00 Fair CLR 86 68 55% 89 30.17 0.0
30 15:10 S 3 10.00 Fair CLR 86 68 55% 89 30.18 0.0
30 14:50 SW 3 10.00 Fair CLR 84.2 68 58% 87 30.19 0.0
30 14:30 Calm 10.00 Fair CLR 84.2 68 58% 87 30.2 0.0
30 14:10 Calm 10.00 Fair CLR 82.4 68 62% 85 30.21 0.0
30 13:50 NW 5 10.00 Fair CLR 82.4 69.8 66% 86 30.22 0.0
30 13:30 Calm 10.00 Partly Cloudy SCT026 82.4 69.8 66% 86 30.22 0.0
30 13:10 S 5 10.00 Fair CLR 80.6 69.8 70% 84 30.23 0.0
30 12:50 S 3 10.00 Partly Cloudy SCT016 80.6 71.6 74% 85 30.23 0.0
30 12:30 W 5 10.00 Partly Cloudy SCT016 78.8 69.8 74% 81 30.24 0.0
30 12:10 SW 3 10.00 Mostly Cloudy BKN014 77 69.8 79% 79 30.25 0.0
30 11:50 W 5 10.00 Overcast OVC012 75.2 69.8 83% 75 30.25 0.0
30 11:30 Calm 10.00 Overcast OVC010 73.4 69.8 89% 30.25 0.0
30 11:10 Calm 10.00 Overcast OVC010 73.4 69.8 89% 30.26 0.0
30 10:50 Calm 10.00 Overcast OVC006 71.6 69.8 94% 30.26 0.0
30 10:30 Calm 10.00 Overcast OVC006 71.6 69.8 94% 30.26 0.0
30 10:10 Calm 10.00 Overcast OVC006 71.6 69.8 94% 30.26 0.0
30 09:50 Calm 10.00 Overcast OVC004 71.6 69.8 94% 30.27 0.0
30 09:30 Calm 10.00 Overcast OVC004 69.8 69.8 100% 30.27 0.0
30 09:10 Calm 10.00 Overcast OVC002 69.8 69.8 100% 30.27 0.0
30 08:50 Calm 5.00 Fog/Mist OVC002 69.8 69.8 100% 30.27 0.0
30 08:30 Calm 0.50 Fog OVC002 69.8 69.8 100% 30.26 0.0
30 08:10 Calm 0.25 Fog OVC002 69.8 69.8 100% 30.25 0.0
30 07:50 Calm 0.15 Fog OVC002 68 68 100% 30.26 0.0
30 07:30 Calm 0.15 Fog OVC002 68 68 100% 30.25 0.0
30 07:10 Calm 0.15 Fog OVC002 68 68 100% 30.25 0.0
30 06:50 Calm 0.25 Fog OVC002 68 68 100% 30.25 0.0
30 06:30 Calm 0.15 Fog OVC002 68 68 100% 30.24 0.0
30 06:10 NE 3 0.15 Fog OVC002 68 68 100% 30.24 0.0
30 05:50 Calm 0.15 Fog OVC002 68 68 100% 30.23 0.0
30 05:30 Calm 0.15 Fog OVC002 68 68 100% 30.23 0.0
30 05:10 Calm 0.15 Fog OVC002 68 68 100% 30.23 0.0
30 04:50 Calm 0.25 Fog OVC002 68 68 100% 30.22 0.0
30 04:30 Calm 0.25 Fog OVC002 68 68 100% 30.22 0.0
30 04:10 Calm 0.25 Fog OVC002 68 68 100% 30.22 0.0
30 03:50 Calm 0.15 Fog OVC002 68 68 100% 30.23 0.0
30 03:30 Calm 0.25 Fog OVC002 68 68 100% 30.23 0.0
30 03:10 Calm 0.75 Fog/Mist BKN002 68 68 100% 30.23 0.0
30 02:50 Calm 0.50 Fog OVC002 68 68 100% 30.23 0.0
30 02:30 Calm 0.25 Fog OVC002 68 68 100% 30.23 0.0
30 02:10 Calm 0.75 Fog/Mist BKN002 68 68 100% 30.23 0.0
30 01:50 Calm 0.50 Fog BKN002 68 68 100% 30.24 0.0
30 01:30 Calm 10.00 Fair CLR 68 68 100% 30.25 0.0
30 01:10 Calm 3.00 Fog/Mist CLR 68 68 100% 30.25 0.0
30 00:50 Calm 0.75 Fog/Mist VV005 69.8 69.8 100% 30.25 0.0
30 00:30 Calm 10.00 Fair CLR 69.8 69.8 100% 30.26 0.0
30 00:10 Calm 7.00 Fair CLR 69.8 69.8 100% 30.26 0.0
29 23:50 Calm 10.00 Fair CLR 69.8 69.8 100% 30.25 0.0
29 23:30 Calm 10.00 Fair CLR 71.6 69.8 94% 30.25 0.0
29 23:10 Calm 10.00 Fair CLR 71.6 69.8 94% 30.25 0.0
29 22:50 Calm 10.00 Fair CLR 71.6 71.6 100% 30.24 0.0
29 22:30 SE 3 10.00 Partly Cloudy SCT019 73.4 71.6 94% 30.23 0.0
29 22:10 Calm 10.00 Partly Cloudy SCT022 73.4 71.6 94% 30.23 0.0
29 21:50 E 3 10.00 Partly Cloudy SCT022 73.4 71.6 94% 30.22 0.0
29 21:30 Calm 10.00 Fair CLR 71.6 71.6 100% 30.22 0.0
29 21:10 Calm 10.00 Fair CLR 73.4 71.6 94% 30.22 0.0
29 20:50 Calm 10.00 Fair CLR 73.4 71.6 94% 30.22 0.0
29 20:30 Calm 10.00 Fair CLR 73.4 71.6 94% 30.2 0.0
29 20:10 Calm 10.00 Fair CLR 77 71.6 83% 78 30.19 0.0
29 19:50 Calm 10.00 Fair CLR 77 71.6 83% 78 30.19 0.0
29 19:30 Calm 10.00 Fair CLR 78.8 71.6 79% 82 30.19 0.0
29 19:10 SE 3 10.00 Fair CLR 78.8 71.6 79% 82 30.19 0.0
29 18:50 SE 3 10.00 Partly Cloudy SCT023 80.6 71.6 74% 85 30.18 0.0
29 18:30 SE 3 10.00 Partly Cloudy SCT023 80.6 71.6 74% 85 30.18 0.0
29 18:10 Calm 10.00 Fair CLR 80.6 71.6 74% 85 30.19 0.0
29 17:50 SE 6 10.00 Fair CLR 80.6 71.6 74% 85 30.19 0.0
29 17:30 E 6 10.00 Mostly Cloudy BKN120 80.6 71.6 74% 85 30.19 0.0
Date Time (edt) Wind (mph) Vis. (mi.) Weather Sky Cond. Air Dwpt Max. Min. Relative Humidity Wind Chill (°F) Heat Index (°F) altimeter (in) sea level (mb) 1 hr 3 hr 6 hr
6 hour
Temperature (ºF) Pressure Precipitation (in)